createdAt,value
2023-05-24T00:02:14.097Z,91903.69
2023-05-24T00:04:41.845Z,91908.50
2023-05-24T00:07:08.612Z,91912.16
2023-05-24T00:09:35.211Z,91902.94
2023-05-24T00:12:01.791Z,91902.22
2023-05-24T00:14:28.438Z,91904.44
2023-05-24T00:16:55.129Z,91895.22
2023-05-24T00:19:22.884Z,91900.75
2023-05-24T00:21:49.851Z,91894.50
2023-05-24T00:24:17.385Z,91893.75
2023-05-24T00:26:44.235Z,91904.84
2023-05-24T00:29:10.875Z,91907.78
2023-05-24T00:31:37.467Z,91897.41
2023-05-24T00:34:04.061Z,91906.63
2023-05-24T00:36:31.239Z,91914.34
2023-05-24T00:38:57.818Z,91908.06
2023-05-24T00:41:24.482Z,91901.22
2023-05-24T00:43:50.989Z,91904.00
2023-05-24T00:46:30.638Z,91901.06
2023-05-24T00:48:57.904Z,91899.63
2023-05-24T00:51:27.337Z,91900.91
2023-05-24T00:53:55.071Z,91891.00
2023-05-24T00:56:22.459Z,91897.41
2023-05-24T00:58:50.868Z,91898.13
2023-05-24T01:01:17.551Z,91896.69
2023-05-24T01:03:44.345Z,91886.88
2023-05-24T01:06:13.554Z,91892.28
2023-05-24T01:08:54.052Z,91890.84
2023-05-24T01:11:36.307Z,91890.09
2023-05-24T01:14:24.127Z,91893.44
2023-05-24T01:17:05.941Z,91887.75
2023-05-24T01:19:53.032Z,91883.69
2023-05-24T01:22:46.686Z,91882.94
2023-05-24T01:25:27.919Z,91879.44
2023-05-24T01:27:55.777Z,91877.97
2023-05-24T01:30:23.216Z,91877.97
2023-05-24T01:32:50.058Z,91875.03
2023-05-24T01:35:16.636Z,91882.03
2023-05-24T01:37:43.157Z,91880.59
2023-05-24T01:40:10.771Z,91886.13
2023-05-24T01:42:59.531Z,91893.13
2023-05-24T01:45:34.153Z,91886.88
2023-05-24T01:48:34.619Z,91885.41
2023-05-24T01:51:07.077Z,91897.22
2023-05-24T01:53:35.733Z,91899.84
2023-05-24T01:56:05.610Z,91897.66
2023-05-24T01:58:33.551Z,91901.00
2023-05-24T02:01:00.985Z,91897.50
2023-05-24T02:03:27.611Z,91895.47
2023-05-24T02:05:54.162Z,91893.28
2023-05-24T02:08:21.254Z,91889.91
2023-05-24T02:10:47.817Z,91892.84
2023-05-24T02:13:18.151Z,91890.22
2023-05-24T02:15:44.837Z,91887.59
2023-05-24T02:18:11.405Z,91882.03
2023-05-24T02:20:38.019Z,91883.53
2023-05-24T02:23:04.623Z,91879.44
2023-05-24T02:25:31.721Z,91884.38
2023-05-24T02:28:01.637Z,91882.34
2023-05-24T02:30:28.454Z,91880.91
2023-05-24T02:32:55.144Z,91878.13
2023-05-24T02:35:21.937Z,91873.72
2023-05-24T02:37:48.499Z,91869.50
2023-05-24T02:40:15.169Z,91861.75
2023-05-24T02:42:41.870Z,91854.03
2023-05-24T02:45:08.903Z,91856.06
2023-05-24T02:47:35.495Z,91855.47
2023-05-24T02:50:02.093Z,91847.00
2023-05-24T02:52:28.595Z,91842.19
2023-05-24T02:54:55.162Z,91838.69
2023-05-24T02:57:21.828Z,91840.00
2023-05-24T02:59:48.382Z,91834.47
2023-05-24T03:02:14.985Z,91832.97
2023-05-24T03:04:41.566Z,91830.94
2023-05-24T03:07:08.096Z,91827.44
2023-05-24T03:09:34.635Z,91824.50
2023-05-24T03:12:01.842Z,91831.38
2023-05-24T03:14:28.421Z,91837.50
2023-05-24T03:16:54.970Z,91838.09
2023-05-24T03:19:21.611Z,91835.31
2023-05-24T03:21:48.200Z,91829.78
2023-05-24T03:24:14.831Z,91830.47
2023-05-24T03:26:41.406Z,91831.22
2023-05-24T03:29:07.955Z,91831.22
2023-05-24T03:31:34.549Z,91837.50
2023-05-24T03:34:01.154Z,91831.97
2023-05-24T03:36:29.023Z,91831.22
2023-05-24T03:38:58.386Z,91827.16
2023-05-24T03:41:25.438Z,91831.22
2023-05-24T03:43:52.756Z,91836.63
2023-05-24T03:46:19.392Z,91836.63
2023-05-24T03:48:46.272Z,91832.53
2023-05-24T03:51:12.815Z,91831.22
2023-05-24T03:53:39.456Z,91818.53
2023-05-24T03:56:06.439Z,91826.25
2023-05-24T03:58:33.187Z,91818.69
2023-05-24T04:01:01.814Z,91827.00
2023-05-24T04:03:28.631Z,91824.22
2023-05-24T04:05:55.188Z,91832.69
2023-05-24T04:08:22.275Z,91832.69
2023-05-24T04:10:48.884Z,91831.53
2023-05-24T04:13:15.508Z,91828.03
2023-05-24T04:15:42.071Z,91835.59
2023-05-24T04:18:08.739Z,91837.81
2023-05-24T04:20:35.765Z,91836.34
2023-05-24T04:23:02.541Z,91849.47
2023-05-24T04:25:29.642Z,91850.03
2023-05-24T04:27:57.118Z,91842.31
2023-05-24T04:30:23.576Z,91843.63
2023-05-24T04:32:50.741Z,91844.94
2023-05-24T04:35:17.777Z,91843.47
2023-05-24T04:37:44.561Z,91840.56
2023-05-24T04:40:11.827Z,91836.88
2023-05-24T04:42:38.506Z,91832.50
2023-05-24T04:45:05.732Z,91835.28
2023-05-24T04:47:32.392Z,91837.16
2023-05-24T04:49:58.997Z,91835.72
2023-05-24T04:52:25.534Z,91834.09
2023-05-24T04:54:52.155Z,91838.47
2023-05-24T04:57:18.780Z,91839.94
2023-05-24T04:59:45.320Z,91833.69
2023-05-24T05:02:12.059Z,91835.88
2023-05-24T05:04:38.700Z,91836.59
2023-05-24T05:07:05.452Z,91830.31
2023-05-24T05:09:32.027Z,91836.03
2023-05-24T05:11:58.567Z,91836.03
2023-05-24T05:14:25.386Z,91837.31
2023-05-24T05:16:51.985Z,91830.31
2023-05-24T05:19:18.901Z,91831.78
2023-05-24T05:21:45.511Z,91838.63
2023-05-24T05:24:12.586Z,91831.78
2023-05-24T05:26:39.165Z,91831.06
2023-05-24T05:29:05.806Z,91831.78
2023-05-24T05:31:32.489Z,91830.31
2023-05-24T05:33:59.134Z,91827.69
2023-05-24T05:36:25.795Z,91827.69
2023-05-24T05:38:52.388Z,91826.97
2023-05-24T05:41:18.952Z,91833.25
2023-05-24T05:43:45.482Z,91824.78
2023-05-24T05:46:13.350Z,91827.69
2023-05-24T05:48:39.928Z,91822.16
2023-05-24T05:51:06.482Z,91829.16
2023-05-24T05:53:36.265Z,91829.16
2023-05-24T05:56:02.829Z,91821.00
2023-05-24T05:58:29.342Z,91823.91
2023-05-24T06:00:55.919Z,91823.34
2023-05-24T06:03:22.657Z,91817.22
2023-05-24T06:05:49.414Z,91813.28
2023-05-24T06:08:15.948Z,91811.81
2023-05-24T06:10:42.678Z,91821.19
2023-05-24T06:13:09.394Z,91817.09
2023-05-24T06:15:35.921Z,91821.88
2023-05-24T06:18:02.539Z,91824.06
2023-05-24T06:20:29.325Z,91820.56
2023-05-24T06:22:57.138Z,91823.91
2023-05-24T06:25:24.521Z,91819.53
2023-05-24T06:27:51.728Z,91828.00
2023-05-24T06:30:18.702Z,91829.31
2023-05-24T06:32:45.685Z,91836.19
2023-05-24T06:35:12.300Z,91840.25
2023-05-24T06:37:38.846Z,91838.78
2023-05-24T06:40:08.914Z,91842.84
2023-05-24T06:42:36.939Z,91834.69
2023-05-24T06:45:03.916Z,91833.97
2023-05-24T06:47:30.675Z,91838.78
2023-05-24T06:49:57.599Z,91845.63
2023-05-24T06:52:24.182Z,91842.84
2023-05-24T06:54:50.801Z,91846.38
2023-05-24T06:57:17.363Z,91849.88
2023-05-24T06:59:43.906Z,91852.50
2023-05-24T07:02:10.709Z,91848.41
2023-05-24T07:04:37.304Z,91852.50
2023-05-24T07:07:04.081Z,91848.25
2023-05-24T07:09:30.691Z,91853.78
2023-05-24T07:11:57.278Z,91851.03
2023-05-24T07:14:25.951Z,91848.13
2023-05-24T07:16:55.077Z,91843.28
2023-05-24T07:19:22.120Z,91844.03
2023-05-24T07:21:48.638Z,91839.81
2023-05-24T07:24:16.206Z,91846.63
2023-05-24T07:26:43.235Z,91844.03
2023-05-24T07:29:09.800Z,91851.03
2023-05-24T07:31:36.952Z,91850.31
2023-05-24T07:34:03.661Z,91849.56
2023-05-24T07:36:34.771Z,91851.03
2023-05-24T07:39:02.230Z,91836.28
2023-05-24T07:41:29.330Z,91839.81
2023-05-24T07:43:56.077Z,91838.47
2023-05-24T07:46:22.813Z,91831.63
2023-05-24T07:48:49.495Z,91835.28
2023-05-24T07:51:16.338Z,91831.94
2023-05-24T07:53:42.872Z,91825.22
2023-05-24T07:56:09.934Z,91824.66
2023-05-24T07:58:36.487Z,91810.22
2023-05-24T08:01:03.232Z,91819.28
2023-05-24T08:03:30.007Z,91819.41
2023-05-24T08:05:57.117Z,91820.13
2023-05-24T08:08:24.382Z,91820.88
2023-05-24T08:10:50.935Z,91818.69
2023-05-24T08:13:17.539Z,91812.41
2023-05-24T08:15:44.283Z,91811.66
2023-05-24T08:18:11.107Z,91814.44
2023-05-24T08:20:38.876Z,91811.66
2023-05-24T08:23:05.637Z,91816.50
2023-05-24T08:25:32.983Z,91809.03
2023-05-24T08:27:59.573Z,91811.81
2023-05-24T08:30:26.119Z,91810.53
2023-05-24T08:32:53.365Z,91815.31
2023-05-24T08:35:21.694Z,91813.13
2023-05-24T08:37:49.731Z,91807.59
2023-05-24T08:40:17.170Z,91808.88
2023-05-24T08:42:45.224Z,91807.44
2023-05-24T08:45:13.632Z,91804.66
2023-05-24T08:47:41.127Z,91803.19
2023-05-24T08:50:08.831Z,91801.16
2023-05-24T08:52:36.166Z,91800.56
2023-05-24T08:55:05.434Z,91803.34
2023-05-24T08:57:34.890Z,91804.66
2023-05-24T09:00:01.871Z,91810.94
2023-05-24T09:02:30.088Z,91808.31
2023-05-24T09:04:57.193Z,91812.41
2023-05-24T09:07:24.513Z,91806.13
2023-05-24T09:09:58.129Z,91813.13
2023-05-24T09:12:36.606Z,91814.44
2023-05-24T09:15:06.725Z,91810.38
2023-05-24T09:17:35.021Z,91811.81
2023-05-24T09:20:02.080Z,91811.97
2023-05-24T09:22:30.719Z,91804.97
2023-05-24T09:25:05.850Z,91803.66
2023-05-24T09:27:34.527Z,91807.75
2023-05-24T09:30:01.980Z,91791.25
2023-05-24T09:32:28.907Z,91792.56
2023-05-24T09:34:58.344Z,91796.78
2023-05-24T09:37:30.698Z,91792.72
2023-05-24T09:39:59.259Z,91788.63
2023-05-24T09:42:30.250Z,91781.94
2023-05-24T09:45:07.309Z,91790.38
2023-05-24T09:47:35.081Z,91782.22
2023-05-24T09:50:02.918Z,91776.81
2023-05-24T09:52:29.671Z,91771.41
2023-05-24T09:54:56.207Z,91763.97
2023-05-24T09:57:23.004Z,91760.63
2023-05-24T09:59:50.267Z,91753.91
2023-05-24T10:02:20.384Z,91747.19
2023-05-24T10:04:47.917Z,91754.94
2023-05-24T10:07:16.221Z,91752.28
2023-05-24T10:09:44.884Z,91753.78
2023-05-24T10:12:11.547Z,91753.03
2023-05-24T10:14:38.928Z,91752.28
2023-05-24T10:17:06.941Z,91753.03
2023-05-24T10:19:34.670Z,91761.19
2023-05-24T10:22:12.774Z,91765.31
2023-05-24T10:24:44.037Z,91771.44
2023-05-24T10:27:15.484Z,91777.41
2023-05-24T10:30:05.871Z,91765.44
2023-05-24T10:32:37.840Z,91774.19
2023-05-24T10:35:06.187Z,91779.44
2023-05-24T10:37:34.196Z,91789.06
2023-05-24T10:40:01.125Z,91791.38
2023-05-24T10:42:31.678Z,91795.34
2023-05-24T10:44:58.180Z,91795.19
2023-05-24T10:47:28.673Z,91792.25
2023-05-24T10:50:05.041Z,91792.09
2023-05-24T10:52:37.658Z,91791.38
2023-05-24T10:55:10.075Z,91790.66
2023-05-24T10:57:38.591Z,91793.41
2023-05-24T11:00:30.808Z,91797.66
2023-05-24T11:03:09.885Z,91812.97
2023-05-24T11:05:52.980Z,91815.75
2023-05-24T11:08:31.864Z,91819.81
2023-05-24T11:11:22.973Z,91807.28
2023-05-24T11:13:55.939Z,91800.25
2023-05-24T11:16:39.494Z,91808.72
2023-05-24T11:19:18.491Z,91805.81
2023-05-24T11:21:47.858Z,91802.31
2023-05-24T11:24:16.852Z,91808.44
2023-05-24T11:26:44.171Z,91805.81
2023-05-24T11:29:13.725Z,91812.09
2023-05-24T11:31:47.500Z,91804.34
2023-05-24T11:34:14.127Z,91817.63
2023-05-24T11:36:41.160Z,91808.72
2023-05-24T11:39:09.435Z,91806.13
2023-05-24T11:41:39.971Z,91811.81
2023-05-24T11:44:08.892Z,91806.44
2023-05-24T11:46:35.803Z,91808.63
2023-05-24T11:49:03.529Z,91805.09
2023-05-24T11:51:33.297Z,91806.56
2023-05-24T11:54:00.729Z,91803.81
2023-05-24T11:56:32.299Z,91799.00
2023-05-24T11:59:06.956Z,91812.13
2023-05-24T12:01:33.746Z,91809.19
2023-05-24T12:04:00.875Z,91811.97
2023-05-24T12:06:42.836Z,91810.53
2023-05-24T12:09:13.227Z,91804.97
2023-05-24T12:11:42.075Z,91799.44
2023-05-24T12:14:13.663Z,91809.19
2023-05-24T12:16:42.596Z,91806.44
2023-05-24T12:21:56.765Z,91799.56
2023-05-24T12:24:24.353Z,91802.31
2023-05-24T12:26:50.891Z,91799.72
2023-05-24T12:29:19.339Z,91804.13
2023-05-24T12:31:48.933Z,91806.16
2023-05-24T12:34:16.801Z,91801.19
2023-05-24T12:36:44.168Z,91801.03
2023-05-24T12:39:24.667Z,91800.28
2023-05-24T12:41:55.622Z,91795.47
2023-05-24T12:44:27.039Z,91799.00
2023-05-24T12:46:54.982Z,91803.06
2023-05-24T12:49:22.828Z,91803.81
2023-05-24T12:51:50.335Z,91796.78
2023-05-24T12:54:21.937Z,91796.06
2023-05-24T12:56:48.899Z,91796.66
2023-05-24T12:59:15.463Z,91792.41
2023-05-24T13:01:42.384Z,91781.91
2023-05-24T13:04:10.914Z,91790.97
2023-05-24T13:06:38.218Z,91781.31
2023-05-24T13:09:06.436Z,91789.78
2023-05-24T13:11:33.174Z,91793.44
2023-05-24T13:13:59.810Z,91791.38
2023-05-24T13:16:26.705Z,91788.19
2023-05-24T13:18:53.264Z,91789.66
2023-05-24T13:21:19.922Z,91801.47
2023-05-24T13:23:46.691Z,91798.13
2023-05-24T13:26:13.523Z,91793.28
2023-05-24T13:28:53.363Z,91791.84
2023-05-24T13:31:26.862Z,91794.47
2023-05-24T13:33:53.694Z,91793.56
2023-05-24T13:36:20.293Z,91795.63
2023-05-24T13:38:46.813Z,91788.63
2023-05-24T13:41:13.520Z,91794.75
2023-05-24T13:43:40.105Z,91797.53
2023-05-24T13:46:07.263Z,91807.88
2023-05-24T13:48:34.984Z,91798.25
2023-05-24T13:51:01.565Z,91805.25
2023-05-24T13:53:28.115Z,91799.56
2023-05-24T13:55:54.933Z,91799.44
2023-05-24T13:58:21.480Z,91802.75
2023-05-24T14:00:48.046Z,91799.28
2023-05-24T14:03:16.026Z,91800.56
2023-05-24T14:05:42.978Z,91800.56
2023-05-24T14:08:09.724Z,91806.13
2023-05-24T14:10:37.349Z,91804.66
2023-05-24T14:15:37.971Z,91814.28
2023-05-24T14:18:08.235Z,91807.28
2023-05-24T14:20:38.036Z,91813.41
2023-05-24T14:23:04.939Z,91822.44
2023-05-24T14:25:32.050Z,91821.31
2023-05-24T14:27:59.306Z,91813.13
2023-05-24T14:30:32.001Z,91815.00
2023-05-24T14:33:00.691Z,91824.06
2023-05-24T14:35:27.260Z,91820.25
2023-05-24T14:37:53.944Z,91827.69
2023-05-24T14:40:20.763Z,91833.41
2023-05-24T14:42:47.389Z,91840.25
2023-05-24T14:45:14.061Z,91839.50
2023-05-24T14:47:40.881Z,91840.25
2023-05-24T14:50:07.923Z,91840.97
2023-05-24T14:52:34.534Z,91841.56
2023-05-24T14:55:01.069Z,91837.31
2023-05-24T14:57:27.608Z,91842.84
2023-05-24T14:59:54.171Z,91840.09
2023-05-24T15:02:20.924Z,91838.94
2023-05-24T15:04:48.188Z,91847.25
2023-05-24T15:07:15.428Z,91849.03
2023-05-24T15:09:41.925Z,91850.47
2023-05-24T15:12:08.643Z,91847.13
2023-05-24T15:14:35.182Z,91844.34
2023-05-24T15:17:02.148Z,91860.44
2023-05-24T15:19:28.812Z,91853.09
2023-05-24T15:21:55.401Z,91851.34
2023-05-24T15:24:22.021Z,91851.34
2023-05-24T15:26:48.589Z,91852.50
2023-05-24T15:29:16.666Z,91852.50
2023-05-24T15:31:43.252Z,91853.66
2023-05-24T15:34:10.054Z,91851.03
2023-05-24T15:36:37.833Z,91845.47
2023-05-24T15:39:05.960Z,91846.22
2023-05-24T15:41:32.772Z,91851.03
2023-05-24T15:44:00.810Z,91843.28
2023-05-24T15:46:27.386Z,91844.75
2023-05-24T15:48:54.043Z,91855.13
2023-05-24T15:53:49.973Z,91846.47
2023-05-24T15:56:16.868Z,91852.03
2023-05-24T15:58:43.568Z,91843.72
2023-05-24T16:01:10.171Z,91848.13
2023-05-24T16:03:38.065Z,91850.88
2023-05-24T16:06:06.419Z,91859.63
2023-05-24T16:08:33.007Z,91852.44
2023-05-24T16:10:59.712Z,91858.72
2023-05-24T16:13:26.334Z,91860.94
2023-05-24T16:15:52.983Z,91861.50
2023-05-24T16:18:23.592Z,91848.22
2023-05-24T16:20:51.335Z,91851.75
2023-05-24T16:23:18.503Z,91848.97
2023-05-24T16:25:49.532Z,91860.19
2023-05-24T16:28:16.126Z,91854.78
2023-05-24T16:30:42.931Z,91855.22
2023-05-24T16:33:09.739Z,91854.63
2023-05-24T16:35:36.412Z,91851.16
2023-05-24T16:38:02.991Z,91859.63
2023-05-24T16:40:29.606Z,91861.66
2023-05-24T16:42:56.210Z,91858.16
2023-05-24T16:45:22.936Z,91860.06
2023-05-24T16:47:49.728Z,91857.84
2023-05-24T16:50:16.729Z,91855.66
2023-05-24T16:52:44.343Z,91852.28
2023-05-24T16:55:11.546Z,91857.41
2023-05-24T16:57:38.527Z,91857.72
2023-05-24T17:00:05.981Z,91862.09
2023-05-24T17:02:33.737Z,91860.81
2023-05-24T17:05:00.944Z,91866.19
2023-05-24T17:07:27.952Z,91863.59
2023-05-24T17:09:54.551Z,91877.59
2023-05-24T17:12:23.739Z,91872.06
2023-05-24T17:14:50.318Z,91885.75
2023-05-24T17:17:16.980Z,91884.28
2023-05-24T17:19:43.500Z,91891.00
2023-05-24T17:22:11.248Z,91887.34
2023-05-24T17:24:37.988Z,91889.53
2023-05-24T17:27:05.090Z,91896.97
2023-05-24T17:29:34.654Z,91909.22
2023-05-24T17:32:01.913Z,91908.47
2023-05-24T17:34:28.583Z,91917.38
2023-05-24T17:36:55.182Z,91918.09
2023-05-24T17:39:22.030Z,91920.13
2023-05-24T17:41:48.568Z,91915.19
2023-05-24T17:44:15.187Z,91915.34
2023-05-24T17:46:41.901Z,91920.72
2023-05-24T17:49:08.553Z,91919.22
2023-05-24T17:51:35.298Z,91922.16
2023-05-24T17:54:01.933Z,91924.78
2023-05-24T17:56:30.359Z,91927.00
2023-05-24T17:58:57.407Z,91931.81
2023-05-24T18:01:24.067Z,91935.56
2023-05-24T18:03:50.766Z,91939.63
2023-05-24T18:06:17.295Z,91942.41
2023-05-24T18:08:44.260Z,91950.56
2023-05-24T18:11:13.079Z,91942.09
2023-05-24T18:13:41.862Z,91944.84
2023-05-24T18:16:10.411Z,91942.66
2023-05-24T18:18:41.382Z,91940.47
2023-05-24T18:21:09.488Z,91948.63
2023-05-24T18:23:39.158Z,91944.41
2023-05-24T18:26:10.734Z,91952.72
2023-05-24T18:28:38.469Z,91947.91
2023-05-24T18:31:08.401Z,91945.69
2023-05-24T18:33:35.196Z,91956.78
2023-05-24T18:36:02.244Z,91954.00
2023-05-24T18:38:28.816Z,91951.38
2023-05-24T18:40:55.340Z,91948.63
2023-05-24T18:43:21.899Z,91950.41
2023-05-24T18:45:48.430Z,91951.88
2023-05-24T18:48:14.996Z,91949.28
2023-05-24T18:50:41.531Z,91949.28
2023-05-24T18:53:09.460Z,91951.13
2023-05-24T18:55:35.976Z,91958.88
2023-05-24T18:58:02.515Z,91967.03
2023-05-24T19:00:29.116Z,91968.34
2023-05-24T19:02:56.468Z,91970.94
2023-05-24T19:05:23.128Z,91976.50
2023-05-24T19:07:49.698Z,91982.03
2023-05-24T19:10:17.626Z,91980.41
2023-05-24T19:12:44.209Z,91983.03
2023-05-24T19:15:10.919Z,91984.34
2023-05-24T19:17:37.616Z,91987.84
2023-05-24T19:20:04.593Z,91991.19
2023-05-24T19:22:31.157Z,91988.25
2023-05-24T19:24:57.730Z,91991.00
2023-05-24T19:27:24.660Z,91991.00
2023-05-24T19:29:51.387Z,91997.13
2023-05-24T19:32:20.701Z,91994.94
2023-05-24T19:34:47.404Z,91993.31
2023-05-24T19:37:14.224Z,91997.53
2023-05-24T19:39:40.773Z,92000.31
2023-05-24T19:42:07.327Z,91999.56
2023-05-24T19:44:34.002Z,91997.53
2023-05-24T19:47:00.536Z,92001.63
2023-05-24T19:49:27.069Z,92001.47
2023-05-24T19:51:53.650Z,92010.50
2023-05-24T19:54:21.076Z,92002.75
2023-05-24T19:56:50.571Z,92006.84
2023-05-24T19:59:18.226Z,92009.63
2023-05-24T20:01:45.561Z,92005.38
2023-05-24T20:04:12.632Z,92008.28
2023-05-24T20:06:40.513Z,92010.50
2023-05-24T20:09:07.093Z,92005.53
2023-05-24T20:11:34.610Z,92009.03
2023-05-24T20:14:01.213Z,92007.59
2023-05-24T20:16:28.008Z,92008.13
2023-05-24T20:18:54.540Z,92007.59
2023-05-24T20:21:21.148Z,92012.56
2023-05-24T20:23:49.783Z,92014.91
2023-05-24T20:26:16.307Z,92010.09
2023-05-24T20:28:42.938Z,92006.03
2023-05-24T20:31:09.493Z,92001.94
2023-05-24T20:33:38.377Z,92008.97
2023-05-24T20:36:05.440Z,92002.69
2023-05-24T20:38:32.069Z,91997.72
2023-05-24T20:40:58.748Z,91999.00
2023-05-24T20:43:25.331Z,92003.09
2023-05-24T20:45:52.042Z,92003.09
2023-05-24T20:48:18.985Z,91997.22
2023-05-24T20:50:45.693Z,91994.44
2023-05-24T20:53:12.320Z,91997.97
2023-05-24T20:55:38.879Z,91994.28
2023-05-24T20:58:05.528Z,91997.06
2023-05-24T21:00:34.400Z,92001.88
2023-05-24T21:03:01.146Z,91998.22
2023-05-24T21:05:27.725Z,92005.06
2023-05-24T21:07:54.221Z,91998.03
2023-05-24T21:10:20.770Z,91998.03
2023-05-24T21:12:48.693Z,91999.53
2023-05-24T21:15:15.354Z,92001.56
2023-05-24T21:17:41.981Z,92003.56
2023-05-24T21:20:09.124Z,92000.81
2023-05-24T21:22:35.804Z,91997.31
2023-05-24T21:25:02.345Z,91996.59
2023-05-24T21:27:28.940Z,91999.34
2023-05-24T21:29:55.593Z,92003.56
2023-05-24T21:32:22.107Z,92002.88
2023-05-24T21:34:49.819Z,92009.13
2023-05-24T21:37:17.478Z,91995.28
2023-05-24T21:39:44.379Z,92000.66
2023-05-24T21:42:10.996Z,91989.22
2023-05-24T21:44:37.512Z,92004.69
2023-05-24T21:47:05.036Z,92001.75
2023-05-24T21:49:31.638Z,91997.69
2023-05-24T21:51:58.135Z,92001.75
2023-05-24T21:54:24.846Z,92007.31
2023-05-24T21:56:51.367Z,92001.75
2023-05-24T21:59:17.896Z,92005.84
2023-05-24T22:01:44.551Z,92010.66
2023-05-24T22:04:11.216Z,92010.66
2023-05-24T22:06:41.317Z,92007.31
2023-05-24T22:09:11.033Z,92016.53
2023-05-24T22:11:37.614Z,92008.94
2023-05-24T22:14:04.174Z,92016.53
2023-05-24T22:16:30.912Z,92011.72
2023-05-24T22:18:57.671Z,92013.22
2023-05-24T22:21:24.258Z,92015.97
2023-05-24T22:23:51.877Z,92013.22
2023-05-24T22:26:18.288Z,92013.94
2023-05-24T22:28:56.025Z,92017.25
2023-05-24T22:31:23.900Z,92015.78
2023-05-24T22:33:50.853Z,92015.78
2023-05-24T22:36:17.374Z,92015.63
2023-05-24T22:38:45.325Z,92009.16
2023-05-24T22:41:12.309Z,92012.50
2023-05-24T22:43:38.815Z,92011.06
2023-05-24T22:46:06.564Z,92009.56
2023-05-24T22:48:34.655Z,92003.31
2023-05-24T22:51:01.503Z,92006.66
2023-05-24T22:53:28.572Z,92006.66
2023-05-24T22:55:55.077Z,92008.13
2023-05-24T22:58:22.502Z,92001.13
2023-05-24T23:00:49.083Z,91991.34
2023-05-24T23:03:15.646Z,91999.66
2023-05-24T23:05:42.482Z,91996.72
2023-05-24T23:08:13.101Z,91998.19
2023-05-24T23:10:45.606Z,91989.72
2023-05-24T23:13:16.862Z,91986.94
2023-05-24T23:15:43.759Z,91988.25
2023-05-24T23:18:16.247Z,91987.53
2023-05-24T23:20:44.512Z,91991.00
2023-05-24T23:23:11.237Z,91986.78
2023-05-24T23:25:37.952Z,91986.78
2023-05-24T23:28:04.844Z,91984.59
2023-05-24T23:30:32.455Z,91985.34
2023-05-24T23:32:59.236Z,91994.19
2023-05-24T23:35:25.828Z,91994.19
2023-05-24T23:37:53.793Z,91998.28
2023-05-24T23:40:20.642Z,91994.94
2023-05-24T23:42:47.340Z,91990.53
2023-05-24T23:45:15.704Z,91996.06
2023-05-24T23:47:42.339Z,91993.31
2023-05-24T23:50:09.618Z,91994.59
2023-05-24T23:52:36.303Z,91994.59
2023-05-24T23:55:03.048Z,91998.84
2023-05-24T23:57:29.833Z,91990.53
2023-05-24T23:59:56.408Z,91993.47
